Time;durP1;ratioP1;P1;durP2;ratioP2;P2;SDS_P1;SDS_P2;PMS_P1;PMS_P2;Temp;Humidity;BMP_temperature;BMP_pressure;BME280_temperature;BME280_humidity;BME280_pressure;Samples;Min_cycle;Max_cycle;Signal;HPM_P1;HPM_P2
2021/12/06 00:01:31;;;;;;;30.30;17.23;;;3.50;94.60;;;;;;5141895;27;35635;-55
2021/12/06 00:04:04;;;;;;;25.15;15.93;;;3.50;94.30;;;;;;5143317;27;37930;-55
2021/12/06 00:06:34;;;;;;;28.77;17.00;;;3.50;94.30;;;;;;5143510;27;36070;-55
2021/12/06 00:09:03;;;;;;;31.60;19.08;;;3.60;94.30;;;;;;5142507;27;37039;-56
2021/12/06 00:11:34;;;;;;;28.65;17.17;;;3.60;94.30;;;;;;5142098;27;36927;-55
2021/12/06 00:14:02;;;;;;;26.13;16.92;;;3.60;94.20;;;;;;5142757;27;37365;-55
2021/12/06 00:16:30;;;;;;;28.27;17.42;;;3.60;94.20;;;;;;5142291;27;38783;-58
2021/12/06 00:18:58;;;;;;;30.10;17.58;;;3.50;94.10;;;;;;5143755;27;37755;-58
2021/12/06 00:21:25;;;;;;;28.38;17.23;;;3.50;94.10;;;;;;5142616;27;37446;-58
2021/12/06 00:23:53;;;;;;;30.13;16.55;;;3.60;94.20;;;;;;5143201;27;38546;-58
2021/12/06 00:26:20;;;;;;;28.20;16.90;;;3.60;94.20;;;;;;5142951;27;37393;-57
2021/12/06 00:28:56;;;;;;;26.92;16.98;;;3.70;94.00;;;;;;5142700;27;37031;-58
2021/12/06 00:31:25;;;;;;;29.98;16.60;;;3.70;93.90;;;;;;5143167;27;37377;-58
2021/12/06 00:33:58;;;;;;;26.98;17.05;;;3.80;93.80;;;;;;5143814;27;37274;-57
2021/12/06 00:36:29;;;;;;;26.00;17.17;;;3.80;93.80;;;;;;5141852;27;37298;-57
2021/12/06 00:38:56;;;;;;;27.98;17.27;;;3.80;93.70;;;;;;5142593;27;38171;-58
2021/12/06 00:41:24;;;;;;;28.10;18.85;;;3.70;93.80;;;;;;5141295;27;37020;-58
2021/12/06 00:43:53;;;;;;;28.27;17.88;;;3.20;93.70;;;;;;5143215;27;40161;-55
2021/12/06 00:46:21;;;;;;;28.90;17.55;;;3.70;93.80;;;;;;5141865;27;38405;-55
2021/12/06 00:48:48;;;;;;;29.40;17.70;;;3.70;94.00;;;;;;5143171;27;38467;-56
2021/12/06 00:51:16;;;;;;;27.75;18.15;;;3.70;94.00;;;;;;5141837;27;38096;-55
2021/12/06 00:53:44;;;;;;;28.85;18.55;;;3.70;94.00;;;;;;5141338;27;38542;-55
2021/12/06 00:56:12;;;;;;;27.70;17.88;;;3.70;94.00;;;;;;5141219;27;38734;-58
2021/12/06 00:58:40;;;;;;;30.10;18.40;;;3.60;93.90;;;;;;5142906;27;38516;-58
2021/12/06 01:01:09;;;;;;;25.05;16.50;;;3.70;94.10;;;;;;5142336;27;35518;-58
2021/12/06 01:03:40;;;;;;;30.58;17.83;;;3.70;94.10;;;;;;5142439;27;38024;-58
2021/12/06 01:06:09;;;;;;;29.08;17.52;;;3.70;93.90;;;;;;5140268;27;36087;-58
2021/12/06 01:08:37;;;;;;;26.23;16.88;;;3.70;93.70;;;;;;5141954;27;37871;-58
2021/12/06 01:11:05;;;;;;;28.90;17.67;;;3.80;93.60;;;;;;5141383;27;36380;-57
2021/12/06 01:13:33;;;;;;;26.73;17.13;;;3.80;93.70;;;;;;5141428;27;38006;-55
2021/12/06 01:16:00;;;;;;;27.75;17.45;;;3.70;93.60;;;;;;5142321;27;38650;-56
2021/12/06 01:18:29;;;;;;;28.00;17.52;;;3.80;93.60;;;;;;5143120;27;37267;-56
2021/12/06 01:21:05;;;;;;;26.55;17.65;;;3.80;93.70;;;;;;5141236;27;38537;-55
2021/12/06 01:23:45;;;;;;;28.65;18.38;;;3.80;93.50;;;;;;5141110;27;37432;-55
2021/12/06 01:26:30;;;;;;;27.55;17.10;;;3.80;93.50;;;;;;5141419;27;35996;-55
2021/12/06 01:29:07;;;;;;;29.92;17.30;;;3.80;93.40;;;;;;5141249;27;38474;-55
2021/12/06 01:31:44;;;;;;;27.60;17.25;;;3.80;93.40;;;;;;5141691;27;36852;-55
2021/12/06 01:39:47;;;;;;;27.25;17.63;;;3.80;93.40;;;;;;5141309;27;37749;-56
2021/12/06 01:42:15;;;;;;;27.77;16.85;;;3.90;93.50;;;;;;5141106;27;36833;-60
2021/12/06 01:44:45;;;;;;;29.17;18.88;;;3.90;93.50;;;;;;5130019;27;36440;-61
2021/12/06 01:47:16;;;;;;;27.25;16.90;;;3.90;93.40;;;;;;5136380;27;37563;-61
2021/12/06 01:49:48;;;;;;;27.95;16.90;;;3.90;93.50;;;;;;5135607;27;37311;-61
2021/12/06 01:52:20;;;;;;;28.10;17.55;;;4.00;93.50;;;;;;5141457;27;37820;-59
2021/12/06 01:54:49;;;;;;;26.13;16.33;;;3.90;93.30;;;;;;5141465;27;37236;-59
2021/12/06 01:57:17;;;;;;;28.60;17.27;;;4.00;93.40;;;;;;5140666;27;37064;-59
2021/12/06 01:59:44;;;;;;;28.25;17.52;;;4.00;93.30;;;;;;5140506;27;37281;-59
2021/12/06 02:02:12;;;;;;;27.23;17.17;;;4.00;93.20;;;;;;5140959;27;36968;-59
2021/12/06 02:04:41;;;;;;;28.88;17.52;;;4.00;93.20;;;;;;5138419;27;38691;-59
2021/12/06 02:07:14;;;;;;;28.88;16.83;;;4.00;93.10;;;;;;5140210;27;37260;-59
2021/12/06 02:09:42;;;;;;;;;;;4.00;93.10;;;;;;5141066;27;37556;-59
2021/12/06 02:12:11;;;;;;;30.02;17.67;;;3.90;92.90;;;;;;5139628;27;37066;-59
2021/12/06 02:14:47;;;;;;;31.23;18.08;;;3.90;93.10;;;;;;5139523;27;37581;-59
2021/12/06 02:17:19;;;;;;;31.20;18.38;;;4.00;93.10;;;;;;5139187;27;37149;-59
2021/12/06 02:19:51;;;;;;;31.83;19.30;;;3.90;93.10;;;;;;5139333;27;37326;-59
2021/12/06 02:22:22;;;;;;;30.90;18.17;;;3.90;93.20;;;;;;5139781;27;36752;-59
2021/12/06 02:24:52;;;;;;;33.28;19.55;;;3.90;93.20;;;;;;5136888;27;37511;-59
2021/12/06 02:27:21;;;;;;;29.00;17.85;;;3.90;93.20;;;;;;5139313;27;38193;-59
2021/12/06 02:29:51;;;;;;;37.67;21.05;;;3.90;93.20;;;;;;5138571;27;36076;-59
2021/12/06 02:32:19;;;;;;;33.55;19.35;;;3.90;93.20;;;;;;5139073;27;36775;-59
2021/12/06 02:34:50;;;;;;;32.83;18.73;;;3.90;93.20;;;;;;5136547;27;38375;-59
2021/12/06 02:37:22;;;;;;;36.88;20.80;;;3.90;93.20;;;;;;5139670;27;38194;-58
2021/12/06 02:39:51;;;;;;;34.63;20.48;;;3.90;93.30;;;;;;5138380;27;37091;-59
2021/12/06 02:42:18;;;;;;;34.13;20.15;;;3.90;93.40;;;;;;5139198;27;36137;-59
2021/12/06 02:44:46;;;;;;;38.67;21.10;;;3.90;93.50;;;;;;5138357;27;37374;-59
2021/12/06 02:47:16;;;;;;;39.88;21.35;;;4.00;93.50;;;;;;5139731;27;36254;-59
2021/12/06 02:49:44;;;;;;;38.10;21.90;;;4.00;93.40;;;;;;5139680;27;38448;-59
2021/12/06 02:52:12;;;;;;;38.22;21.65;;;4.00;93.40;;;;;;5140879;27;35574;-58
2021/12/06 02:54:42;;;;;;;38.33;21.05;;;3.90;93.30;;;;;;5139477;27;36263;-59
2021/12/06 02:57:21;;;;;;;34.55;20.27;;;3.90;93.40;;;;;;5139692;27;37829;-59
2021/12/06 02:59:50;;;;;;;39.17;22.33;;;3.90;93.40;;;;;;5139801;27;35947;-59
2021/12/06 03:02:20;;;;;;;38.00;20.83;;;3.90;93.50;;;;;;5138973;27;35998;-59
2021/12/06 03:04:48;;;;;;;38.35;21.08;;;4.00;93.50;;;;;;5138884;27;37046;-59
2021/12/06 03:07:20;;;;;;;37.05;21.00;;;4.00;93.50;;;;;;5139557;27;37094;-59
2021/12/06 03:09:51;;;;;;;37.97;22.98;;;4.00;93.50;;;;;;5138611;27;37312;-59
2021/12/06 03:12:22;;;;;;;38.22;21.33;;;4.00;93.60;;;;;;5139732;27;37887;-59
2021/12/06 03:14:52;;;;;;;38.78;21.85;;;4.00;93.60;;;;;;5136729;27;37724;-59
2021/12/06 03:17:21;;;;;;;35.33;21.33;;;4.00;93.60;;;;;;5139832;27;38497;-59
2021/12/06 03:19:49;;;;;;;36.30;20.95;;;4.00;93.60;;;;;;5138672;27;38771;-59
2021/12/06 03:22:17;;;;;;;36.47;22.13;;;4.00;93.60;;;;;;5139602;27;39938;-59
2021/12/06 03:24:45;;;;;;;34.88;20.38;;;4.10;93.60;;;;;;5138523;27;37801;-59
2021/12/06 03:27:15;;;;;;;37.95;21.35;;;4.10;93.90;;;;;;5137609;27;37152;-59
2021/12/06 03:29:43;;;;;;;33.90;20.33;;;4.10;93.70;;;;;;5139411;27;37904;-59
2021/12/06 03:32:12;;;;;;;33.13;19.58;;;4.10;93.70;;;;;;5139005;27;39237;-59
2021/12/06 03:34:39;;;;;;;35.65;21.00;;;4.10;93.80;;;;;;5137272;27;40451;-59
2021/12/06 03:37:08;;;;;;;36.35;21.10;;;4.10;93.90;;;;;;5138364;27;37558;-59
2021/12/06 03:39:39;;;;;;;33.65;19.95;;;4.10;93.80;;;;;;5137327;27;40247;-59
2021/12/06 03:42:09;;;;;;;35.20;20.65;;;4.20;93.70;;;;;;5137543;27;36567;-59
2021/12/06 03:44:39;;;;;;;33.08;19.95;;;4.20;93.70;;;;;;5135293;27;36272;-59
2021/12/06 03:47:10;;;;;;;35.13;20.80;;;4.20;93.60;;;;;;5138025;27;37339;-59
2021/12/06 03:49:38;;;;;;;32.70;19.00;;;4.20;93.50;;;;;;5136453;27;36632;-59
2021/12/06 03:52:07;;;;;;;32.10;18.08;;;4.20;93.50;;;;;;5137813;27;35846;-59
2021/12/06 03:54:35;;;;;;;31.33;19.58;;;4.20;93.40;;;;;;5135832;27;38756;-59
2021/12/06 03:57:03;;;;;;;35.85;22.58;;;4.30;93.30;;;;;;5136658;27;36021;-59
2021/12/06 03:59:31;;;;;;;33.35;21.17;;;4.30;93.30;;;;;;5136261;27;38426;-59
2021/12/06 04:02:00;;;;;;;35.00;19.83;;;4.30;93.30;;;;;;5136198;27;36953;-59
2021/12/06 04:04:28;;;;;;;38.67;21.65;;;4.30;93.20;;;;;;5136478;27;37896;-59
2021/12/06 04:06:56;;;;;;;36.03;22.48;;;4.30;93.30;;;;;;5142951;27;36023;-58
2021/12/06 04:09:23;;;;;;;37.50;21.77;;;4.30;93.40;;;;;;5139986;27;36694;-59
2021/12/06 04:11:51;;;;;;;33.72;20.50;;;4.20;93.50;;;;;;5142122;27;37778;-59
2021/12/06 04:14:19;;;;;;;40.60;20.83;;;4.20;93.50;;;;;;5140555;27;36571;-59
2021/12/06 04:16:46;;;;;;;40.67;23.65;;;4.20;93.60;;;;;;5142638;27;36865;-59
2021/12/06 04:19:15;;;;;;;39.80;22.73;;;4.20;93.60;;;;;;5141911;27;36942;-55
2021/12/06 04:21:44;;;;;;;40.85;23.48;;;4.20;93.60;;;;;;5141893;27;37019;-55
2021/12/06 04:24:11;;;;;;;35.42;19.75;;;4.20;93.60;;;;;;5141039;27;37541;-55
2021/12/06 04:26:39;;;;;;;35.92;20.85;;;4.30;93.60;;;;;;5142510;27;38405;-55
2021/12/06 04:29:07;;;;;;;36.70;20.92;;;4.20;93.50;;;;;;5142877;27;36004;-55
2021/12/06 04:31:37;;;;;;;41.08;23.70;;;4.20;93.50;;;;;;5142019;27;38133;-55
2021/12/06 04:34:05;;;;;;;41.47;24.05;;;4.30;93.50;;;;;;5142184;27;38125;-55
2021/12/06 04:36:34;;;;;;;42.88;24.10;;;4.20;93.50;;;;;;5141504;27;38601;-55
2021/12/06 04:39:01;;;;;;;39.95;23.33;;;4.30;93.50;;;;;;5140989;27;37160;-55
2021/12/06 04:41:28;;;;;;;40.75;24.08;;;4.30;93.50;;;;;;5142560;27;35519;-55
2021/12/06 04:43:56;;;;;;;42.08;22.92;;;4.30;93.50;;;;;;5142410;27;38065;-55
2021/12/06 04:46:23;;;;;;;38.65;22.75;;;4.50;93.50;;;;;;5141749;27;37152;-55
2021/12/06 04:48:50;;;;;;;37.63;22.00;;;4.30;93.40;;;;;;5142394;27;38528;-55
2021/12/06 04:51:18;;;;;;;37.28;21.00;;;4.80;93.50;;;;;;5141056;27;37454;-55
2021/12/06 04:53:47;;;;;;;36.75;21.40;;;4.30;93.40;;;;;;5141779;27;36486;-55
2021/12/06 04:56:20;;;;;;;34.85;19.35;;;4.30;93.30;;;;;;5140577;27;37179;-55
2021/12/06 04:58:52;;;;;;;38.33;22.17;;;4.40;93.50;;;;;;5141836;27;37097;-55
2021/12/06 05:01:24;;;;;;;37.95;20.40;;;4.30;93.30;;;;;;5141186;27;38547;-55
2021/12/06 05:03:52;;;;;;;41.40;22.13;;;4.30;93.30;;;;;;5141802;27;38784;-55
2021/12/06 05:06:23;;;;;;;35.45;19.85;;;4.30;93.30;;;;;;5141079;27;36067;-55
2021/12/06 05:08:56;;;;;;;39.17;21.27;;;4.30;93.30;;;;;;5142562;27;35873;-55
2021/12/06 05:11:26;;;;;;;33.60;20.50;;;4.30;93.30;;;;;;5139984;27;37679;-55
2021/12/06 05:13:56;;;;;;;39.45;21.77;;;4.30;93.30;;;;;;5142251;27;38374;-55
2021/12/06 05:16:23;;;;;;;37.28;21.10;;;4.30;93.40;;;;;;5140647;27;37341;-55
2021/12/06 05:18:51;;;;;;;38.33;20.80;;;4.30;93.50;;;;;;5140829;27;37620;-55
2021/12/06 05:21:18;;;;;;;40.50;21.65;;;4.40;93.50;;;;;;5141080;27;37928;-55
2021/12/06 05:23:46;;;;;;;43.13;21.95;;;4.30;93.40;;;;;;5141398;27;37764;-58
2021/12/06 05:26:14;;;;;;;42.65;23.05;;;4.40;93.50;;;;;;5140306;27;36021;-58
2021/12/06 05:28:44;;;;;;;38.92;21.52;;;4.40;93.50;;;;;;5140817;27;38512;-59
2021/12/06 05:31:15;;;;;;;40.95;22.98;;;4.30;93.50;;;;;;5139871;27;36781;-58
2021/12/06 05:33:44;;;;;;;35.25;19.77;;;4.30;93.60;;;;;;5141922;27;38439;-59
2021/12/06 05:36:13;;;;;;;39.90;23.38;;;4.30;93.60;;;;;;5140514;27;40333;-58
2021/12/06 05:38:40;;;;;;;35.38;19.63;;;4.30;93.50;;;;;;5141862;27;38146;-59
2021/12/06 05:41:07;;;;;;;38.55;20.90;;;4.30;93.60;;;;;;5140738;27;36546;-55
2021/12/06 05:43:36;;;;;;;38.50;21.90;;;4.30;93.70;;;;;;5141811;27;36386;-55
2021/12/06 05:46:04;;;;;;;39.83;22.48;;;4.30;93.70;;;;;;5141252;27;38725;-59
2021/12/06 05:48:32;;;;;;;43.15;23.33;;;4.30;93.70;;;;;;5140739;27;35450;-58
2021/12/06 05:50:59;;;;;;;44.00;22.55;;;4.30;93.80;;;;;;5141227;27;36821;-58
2021/12/06 05:53:28;;;;;;;42.97;23.17;;;4.30;93.80;;;;;;5142120;27;38163;-59
2021/12/06 05:55:55;;;;;;;47.17;24.45;;;4.30;93.80;;;;;;5140085;27;37168;-58
2021/12/06 05:58:27;;;;;;;43.35;23.40;;;4.30;93.70;;;;;;5142017;27;36691;-59
2021/12/06 06:00:57;;;;;;;40.90;21.27;;;4.30;93.80;;;;;;5139408;27;36634;-58
2021/12/06 06:03:25;;;;;;;41.30;21.92;;;4.30;93.70;;;;;;5141891;27;38392;-59
2021/12/06 06:05:53;;;;;;;42.55;22.10;;;4.20;93.70;;;;;;5138476;27;37843;-58
2021/12/06 06:08:21;;;;;;;45.10;23.17;;;4.30;93.70;;;;;;5140495;27;37023;-59
2021/12/06 06:10:50;;;;;;;40.60;21.40;;;4.30;93.80;;;;;;5140538;27;35553;-58
2021/12/06 06:13:19;;;;;;;39.30;20.95;;;4.20;93.80;;;;;;5140770;27;38135;-55
2021/12/06 06:15:49;;;;;;;38.78;20.05;;;4.20;93.70;;;;;;5139983;27;37357;-55
2021/12/06 06:18:18;;;;;;;37.65;18.15;;;4.20;93.70;;;;;;5140399;27;36711;-55
2021/12/06 06:20:48;;;;;;;37.40;19.80;;;4.20;93.60;;;;;;5140735;27;35451;-55
2021/12/06 06:23:15;;;;;;;36.78;19.63;;;4.10;93.60;;;;;;5139383;27;37751;-55
2021/12/06 06:25:43;;;;;;;38.42;20.35;;;4.10;93.60;;;;;;5138949;27;38036;-55
2021/12/06 06:28:10;;;;;;;37.58;20.02;;;4.10;93.70;;;;;;5139862;27;36622;-55
2021/12/06 06:30:38;;;;;;;37.15;19.17;;;4.00;93.80;;;;;;5139430;27;36854;-55
2021/12/06 06:33:06;;;;;;;41.75;20.27;;;4.00;93.90;;;;;;5140454;27;37148;-55
2021/12/06 06:35:34;;;;;;;36.45;19.20;;;4.00;93.90;;;;;;5139710;27;35895;-55
2021/12/06 06:38:02;;;;;;;37.13;18.10;;;4.00;93.90;;;;;;5143451;27;36006;-55
2021/12/06 06:40:30;;;;;;;35.25;18.80;;;4.00;93.90;;;;;;5143358;27;36732;-55
2021/12/06 06:42:57;;;;;;;35.70;19.70;;;4.00;93.90;;;;;;5143179;27;42346;-55
2021/12/06 06:45:25;;;;;;;34.90;17.88;;;4.00;94.00;;;;;;5143702;27;37770;-55
2021/12/06 06:47:52;;;;;;;37.10;19.77;;;4.00;94.00;;;;;;5143818;27;35989;-58
2021/12/06 06:50:21;;;;;;;37.17;18.73;;;4.00;94.00;;;;;;5142966;27;37343;-58
2021/12/06 06:52:51;;;;;;;34.10;17.95;;;4.00;94.10;;;;;;5144413;27;37689;-59
2021/12/06 06:55:18;;;;;;;33.75;17.75;;;3.90;94.10;;;;;;5141935;27;38149;-59
2021/12/06 06:57:47;;;;;;;35.08;18.27;;;3.90;94.10;;;;;;5142511;27;39413;-59
2021/12/06 07:00:17;;;;;;;38.20;19.15;;;3.90;94.10;;;;;;5143221;27;36859;-55
2021/12/06 07:02:45;;;;;;;37.78;17.83;;;3.90;94.20;;;;;;5143283;27;37761;-55
2021/12/06 07:05:13;;;;;;;37.40;19.30;;;3.90;94.20;;;;;;5144552;27;37155;-55
2021/12/06 07:07:41;;;;;;;37.42;19.45;;;3.90;94.20;;;;;;5143291;27;37095;-55
2021/12/06 07:10:11;;;;;;;34.47;16.88;;;3.90;94.20;;;;;;5142697;27;36171;-55
2021/12/06 07:12:44;;;;;;;38.78;19.65;;;3.90;94.30;;;;;;5142168;27;40020;-55
2021/12/06 07:15:13;;;;;;;;;;;3.90;94.20;;;;;;5139736;27;36184;-58
2021/12/06 07:17:40;;;;;;;39.33;18.65;;;3.80;94.60;;;;;;5143678;27;37444;-58
2021/12/06 07:20:09;;;;;;;39.90;19.70;;;3.80;94.40;;;;;;5143020;27;36469;-58
2021/12/06 07:22:37;;;;;;;37.78;18.80;;;3.80;94.40;;;;;;5143645;27;39099;-58
2021/12/06 07:25:05;;;;;;;38.15;19.58;;;3.80;94.50;;;;;;5144298;27;37175;-58
2021/12/06 07:27:34;;;;;;;41.60;18.80;;;3.90;94.50;;;;;;5141679;27;37244;-59
2021/12/06 07:30:01;;;;;;;40.30;19.92;;;3.90;94.50;;;;;;5142918;27;36748;-58
2021/12/06 07:32:29;;;;;;;39.70;18.50;;;3.90;94.40;;;;;;5141944;27;38806;-59
2021/12/06 07:34:56;;;;;;;37.08;18.85;;;3.90;94.40;;;;;;5143291;27;36787;-55
2021/12/06 07:37:23;;;;;;;43.28;18.95;;;3.90;94.40;;;;;;5142750;27;37736;-55
2021/12/06 07:39:51;;;;;;;39.40;20.48;;;3.90;94.40;;;;;;5140826;27;35546;-55
2021/12/06 07:42:19;;;;;;;39.47;20.08;;;3.90;94.40;;;;;;5139081;27;37833;-58
2021/12/06 07:44:48;;;;;;;42.05;20.25;;;3.90;94.40;;;;;;5141761;27;37454;-55
2021/12/06 07:47:16;;;;;;;43.10;20.60;;;3.90;94.40;;;;;;5141707;27;38159;-58
2021/12/06 07:49:44;;;;;;;42.83;20.48;;;4.00;94.40;;;;;;5142508;27;36528;-58
2021/12/06 07:52:12;;;;;;;45.05;22.02;;;4.00;94.40;;;;;;5142211;27;38138;-59
2021/12/06 07:54:40;;;;;;;44.53;21.08;;;4.00;94.40;;;;;;5142507;27;39178;-58
2021/12/06 07:57:08;;;;;;;46.47;22.60;;;4.00;94.40;;;;;;5140322;27;37474;-58
2021/12/06 07:59:37;;;;;;;44.60;21.73;;;4.10;94.40;;;;;;5140470;27;35488;-55
2021/12/06 08:02:09;;;;;;;41.03;21.10;;;4.10;94.30;;;;;;5140887;27;36307;-55
2021/12/06 08:04:38;;;;;;;41.03;20.50;;;4.10;94.30;;;;;;5140810;27;37288;-55
2021/12/06 08:07:05;;;;;;;42.47;22.60;;;4.10;94.30;;;;;;5142598;27;36943;-55
2021/12/06 08:09:33;;;;;;;44.22;21.30;;;4.10;94.30;;;;;;5141481;27;36733;-55
2021/12/06 08:12:00;;;;;;;43.50;21.20;;;4.10;94.20;;;;;;5134150;27;36994;-55
2021/12/06 08:14:28;;;;;;;42.67;21.08;;;4.10;94.10;;;;;;5137177;27;37990;-59
2021/12/06 08:16:55;;;;;;;41.28;19.95;;;4.10;94.10;;;;;;5135018;27;37650;-59
2021/12/06 08:19:24;;;;;;;41.40;20.67;;;4.10;94.10;;;;;;5135683;27;36802;-55
2021/12/06 08:21:51;;;;;;;41.97;20.48;;;4.10;94.10;;;;;;5138163;27;40660;-55
2021/12/06 08:24:18;;;;;;;42.63;21.33;;;4.20;94.10;;;;;;5138717;27;37887;-58
2021/12/06 08:26:47;;;;;;;41.08;20.70;;;4.10;94.10;;;;;;5139340;27;37083;-58
2021/12/06 08:29:16;;;;;;;47.45;23.02;;;4.10;94.10;;;;;;5140631;27;36195;-59
2021/12/06 08:31:44;;;;;;;43.70;22.52;;;4.10;94.10;;;;;;5140565;27;37552;-58
2021/12/06 08:34:11;;;;;;;43.85;20.83;;;4.10;94.20;;;;;;5140482;27;37360;-58
2021/12/06 08:36:41;;;;;;;47.05;21.20;;;4.20;94.20;;;;;;5140953;27;40236;-55
2021/12/06 08:39:08;;;;;;;45.58;21.10;;;4.20;94.20;;;;;;5139437;27;35571;-55
2021/12/06 08:41:36;;;;;;;43.72;22.33;;;4.20;94.20;;;;;;5140377;27;37752;-58
2021/12/06 08:44:04;;;;;;;47.50;21.73;;;4.20;94.10;;;;;;5140194;27;37401;-58
2021/12/06 08:46:35;;;;;;;42.03;20.45;;;4.20;94.10;;;;;;5139144;27;38212;-58
2021/12/06 08:49:05;;;;;;;45.25;21.10;;;4.30;94.10;;;;;;5139827;27;37327;-55
2021/12/06 08:51:36;;;;;;;49.17;22.15;;;4.30;94.10;;;;;;5139091;27;37629;-55
2021/12/06 08:54:07;;;;;;;41.83;20.35;;;4.30;94.20;;;;;;5140853;27;37422;-58
2021/12/06 08:56:35;;;;;;;46.22;21.85;;;4.30;94.10;;;;;;5138200;27;37257;-58
2021/12/06 08:59:02;;;;;;;44.67;21.50;;;4.30;94.10;;;;;;5140182;27;37404;-58
2021/12/06 09:01:30;;;;;;;46.63;21.30;;;4.30;94.10;;;;;;5136388;27;37930;-55
2021/12/06 09:03:57;;;;;;;45.45;21.15;;;4.30;94.10;;;;;;5139147;27;38009;-55
2021/12/06 09:06:25;;;;;;;41.85;19.95;;;4.30;94.20;;;;;;5138848;27;37172;-55
2021/12/06 09:08:54;;;;;;;41.40;22.52;;;4.30;94.10;;;;;;5140585;27;37473;-55
2021/12/06 09:11:23;;;;;;;47.35;21.95;;;4.30;94.10;;;;;;5139362;27;36398;-58
2021/12/06 09:13:50;;;;;;;44.38;21.35;;;4.30;94.00;;;;;;5139246;27;38196;-55
2021/12/06 09:16:18;;;;;;;41.92;19.42;;;4.30;93.90;;;;;;5139847;27;37179;-55
2021/12/06 09:18:46;;;;;;;40.53;20.23;;;4.30;94.00;;;;;;5139921;27;36651;-55
2021/12/06 09:21:17;;;;;;;47.20;21.60;;;4.30;94.00;;;;;;5135429;27;39686;-58
2021/12/06 09:23:45;;;;;;;39.85;18.83;;;4.30;94.00;;;;;;5138755;27;37819;-58
2021/12/06 09:26:12;;;;;;;42.70;19.50;;;4.40;94.00;;;;;;5139088;27;36042;-55
2021/12/06 09:28:41;;;;;;;39.88;19.13;;;4.30;93.90;;;;;;5138160;27;36650;-55
2021/12/06 09:31:09;;;;;;;44.42;20.00;;;4.30;94.10;;;;;;5139408;27;37714;-58
2021/12/06 09:33:39;;;;;;;35.22;17.60;;;4.30;94.20;;;;;;5140139;27;38071;-58
2021/12/06 09:36:09;;;;;;;33.92;17.52;;;4.30;94.30;;;;;;5138122;27;36164;-58
2021/12/06 09:38:39;;;;;;;32.38;16.80;;;4.30;94.30;;;;;;5138715;27;37275;-55
2021/12/06 09:41:11;;;;;;;35.50;16.95;;;4.30;94.10;;;;;;5136015;27;37286;-55
2021/12/06 09:43:41;;;;;;;37.20;18.05;;;4.40;94.10;;;;;;5139106;27;37375;-55
2021/12/06 09:46:09;;;;;;;33.63;17.15;;;4.40;94.20;;;;;;5138350;27;37493;-55
2021/12/06 09:48:39;;;;;;;37.55;18.55;;;4.40;94.00;;;;;;5140314;27;38483;-58
2021/12/06 09:51:10;;;;;;;34.60;17.48;;;4.30;93.90;;;;;;5138492;27;37638;-58
2021/12/06 09:53:41;;;;;;;32.95;17.45;;;4.20;94.10;;;;;;5139030;27;37641;-58
2021/12/06 09:56:12;;;;;;;33.70;16.27;;;4.20;94.20;;;;;;5140219;27;38056;-59
2021/12/06 09:58:41;;;;;;;33.80;17.05;;;4.20;94.20;;;;;;5139365;27;37533;-55
2021/12/06 10:01:13;;;;;;;34.95;18.52;;;4.30;94.20;;;;;;5139323;27;38606;-55
2021/12/06 10:03:41;;;;;;;30.23;16.80;;;4.30;94.20;;;;;;5139340;27;37406;-57
2021/12/06 10:06:09;;;;;;;32.30;17.10;;;4.30;94.10;;;;;;5137324;27;37286;-55
2021/12/06 10:08:39;;;;;;;34.90;18.00;;;4.30;94.00;;;;;;5138204;27;37548;-58
2021/12/06 10:11:08;;;;;;;36.00;17.00;;;4.30;94.00;;;;;;5138927;27;39367;-55
2021/12/06 10:13:36;;;;;;;32.22;16.45;;;4.40;94.00;;;;;;5141134;27;37778;-55
2021/12/06 10:16:06;;;;;;;34.45;15.98;;;4.40;93.80;;;;;;5142058;27;35953;-56
2021/12/06 10:18:33;;;;;;;34.10;17.13;;;4.40;93.90;;;;;;5141808;27;36939;-56
2021/12/06 10:21:02;;;;;;;32.42;16.60;;;4.40;93.80;;;;;;5142552;27;38590;-55
2021/12/06 10:23:29;;;;;;;35.05;17.30;;;4.40;93.80;;;;;;5141412;27;36836;-58
2021/12/06 10:25:58;;;;;;;33.53;16.45;;;4.40;93.60;;;;;;5141298;27;37906;-58
2021/12/06 10:28:29;;;;;;;29.45;16.90;;;4.50;93.50;;;;;;5141850;27;37238;-56
2021/12/06 10:30:59;;;;;;;34.47;17.20;;;4.50;93.50;;;;;;5140600;27;37695;-58
2021/12/06 10:33:36;;;;;;;31.90;16.67;;;4.50;93.40;;;;;;5139400;27;37322;-56
2021/12/06 10:36:08;;;;;;;32.78;18.00;;;4.60;93.40;;;;;;5141239;27;36342;-59
2021/12/06 10:38:38;;;;;;;33.75;17.83;;;4.60;93.20;;;;;;5140558;27;36572;-58
2021/12/06 10:41:08;;;;;;;37.63;18.83;;;4.50;93.10;;;;;;5141159;27;37697;-58
2021/12/06 10:43:37;;;;;;;34.25;17.83;;;4.50;93.30;;;;;;5141248;27;37261;-58
2021/12/06 10:46:06;;;;;;;33.58;17.42;;;4.40;93.20;;;;;;5140316;27;37265;-58
2021/12/06 10:48:37;;;;;;;33.38;17.35;;;4.40;93.30;;;;;;5140764;27;37241;-58
2021/12/06 10:51:06;;;;;;;33.78;17.60;;;4.40;93.40;;;;;;5138350;27;37570;-58
2021/12/06 10:53:39;;;;;;;30.63;16.10;;;4.40;93.40;;;;;;5141896;27;37564;-55
2021/12/06 10:56:15;;;;;;;30.27;16.20;;;4.50;93.20;;;;;;5140800;27;35983;-58
2021/12/06 10:58:43;;;;;;;28.95;15.50;;;4.40;93.30;;;;;;5143244;27;36788;-58
2021/12/06 11:01:13;;;;;;;31.98;16.73;;;4.40;93.10;;;;;;5140599;27;39055;-58
2021/12/06 11:03:45;;;;;;;32.50;17.15;;;4.40;93.20;;;;;;5142224;27;37846;-59
2021/12/06 11:06:18;;;;;;;33.03;17.83;;;4.40;93.20;;;;;;5142653;27;37505;-58
2021/12/06 11:08:47;;;;;;;36.72;18.20;;;4.40;93.20;;;;;;5142373;27;37642;-58
2021/12/06 11:11:17;;;;;;;35.90;18.50;;;4.40;93.20;;;;;;5141027;27;37686;-58
2021/12/06 11:13:49;;;;;;;38.13;20.17;;;4.40;93.20;;;;;;5136164;27;35985;-58
2021/12/06 11:16:18;;;;;;;42.88;22.50;;;4.50;93.10;;;;;;5140443;27;37910;-58
2021/12/06 11:18:50;;;;;;;44.70;22.98;;;4.50;93.00;;;;;;5139324;27;36908;-56
2021/12/06 11:21:30;;;;;;;52.00;27.02;;;4.50;93.00;;;;;;5139539;27;39079;-58
2021/12/06 11:24:12;;;;;;;50.00;24.75;;;4.40;93.20;;;;;;5139304;27;37282;-55
2021/12/06 11:26:43;;;;;;;51.08;25.70;;;4.40;93.20;;;;;;5139389;27;37451;-58
2021/12/06 11:29:15;;;;;;;52.53;27.45;;;4.30;93.10;;;;;;5138422;27;36892;-58
2021/12/06 11:31:48;;;;;;;51.67;24.65;;;4.30;93.30;;;;;;5138106;27;36980;-55
2021/12/06 11:34:17;;;;;;;47.55;23.48;;;4.40;93.40;;;;;;5140526;27;38191;-56
2021/12/06 11:36:44;;;;;;;42.10;21.08;;;4.40;93.70;;;;;;5138176;27;36959;-55
2021/12/06 11:39:14;;;;;;;39.35;20.48;;;4.30;93.40;;;;;;5140412;27;39581;-55
2021/12/06 11:41:46;;;;;;;32.15;17.13;;;4.30;93.30;;;;;;5140332;27;38290;-56
2021/12/06 11:44:17;;;;;;;34.75;17.35;;;4.30;93.30;;;;;;5142213;27;36901;-58
2021/12/06 11:46:44;;;;;;;34.90;17.35;;;4.30;93.30;;;;;;5140699;27;36961;-58
2021/12/06 11:49:21;;;;;;;30.63;15.00;;;4.30;93.30;;;;;;5141063;27;35729;-58
2021/12/06 11:51:51;;;;;;;31.58;16.42;;;4.40;93.20;;;;;;5141306;27;37516;-58
2021/12/06 11:54:20;;;;;;;31.48;15.98;;;4.80;93.30;;;;;;5140585;27;37811;-55
2021/12/06 11:56:49;;;;;;;27.63;14.82;;;4.50;93.10;;;;;;5139465;27;37764;-55
2021/12/06 11:59:18;;;;;;;28.52;15.05;;;4.50;93.00;;;;;;5141385;27;36763;-55
2021/12/06 12:01:49;;;;;;;25.25;14.65;;;4.70;92.90;;;;;;5139541;27;40092;-55
2021/12/06 12:04:21;;;;;;;26.77;14.48;;;4.70;92.50;;;;;;5139983;27;37313;-55
2021/12/06 12:06:50;;;;;;;26.80;14.35;;;4.70;92.50;;;;;;5138973;27;39873;-55
2021/12/06 12:09:23;;;;;;;25.92;12.95;;;4.60;92.60;;;;;;5140592;27;35532;-55
2021/12/06 12:12:03;;;;;;;25.10;14.13;;;4.60;92.50;;;;;;5139438;27;39131;-55
2021/12/06 12:14:36;;;;;;;24.90;13.35;;;4.60;92.50;;;;;;5139450;27;37439;-55
2021/12/06 12:17:08;;;;;;;25.05;13.60;;;4.60;92.50;;;;;;5139968;27;37859;-58
2021/12/06 12:19:39;;;;;;;22.30;12.15;;;4.60;92.40;;;;;;5140361;27;36340;-56
2021/12/06 12:22:07;;;;;;;26.38;13.07;;;4.60;92.50;;;;;;5139453;27;37172;-55
2021/12/06 12:24:36;;;;;;;23.25;13.38;;;4.60;92.40;;;;;;5139272;27;37840;-55
2021/12/06 12:27:10;;;;;;;27.35;13.60;;;4.60;92.40;;;;;;5138761;27;37255;-60
2021/12/06 12:29:38;;;;;;;25.90;14.63;;;4.60;92.30;;;;;;5138110;27;37853;-56
2021/12/06 12:32:07;;;;;;;32.05;15.40;;;4.60;92.40;;;;;;5137334;27;38195;-58
2021/12/06 12:34:38;;;;;;;27.95;14.23;;;4.60;92.50;;;;;;5136802;27;36742;-56
2021/12/06 12:37:08;;;;;;;27.35;14.32;;;4.50;92.70;;;;;;5137834;27;37138;-59
2021/12/06 12:39:36;;;;;;;27.27;14.10;;;4.50;92.70;;;;;;5138663;27;36502;-56
2021/12/06 12:42:06;;;;;;;29.15;15.93;;;4.50;92.70;;;;;;5138069;27;37387;-56
2021/12/06 12:44:45;;;;;;;30.55;17.08;;;4.60;92.80;;;;;;5137519;27;38079;-56
2021/12/06 12:47:15;;;;;;;28.30;15.82;;;4.60;92.70;;;;;;5139006;27;37638;-56
2021/12/06 12:49:50;;;;;;;31.77;16.95;;;4.60;92.80;;;;;;5136693;27;38155;-59
2021/12/06 12:52:35;;;;;;;35.25;17.58;;;4.60;92.70;;;;;;5137643;27;38525;-59
2021/12/06 12:55:04;;;;;;;32.55;17.08;;;4.50;92.80;;;;;;5139405;27;38036;-56